Time;durP1;ratioP1;P1;durP2;ratioP2;P2;SDS_P1;SDS_P2;PMS_P1;PMS_P2;Temp;Humidity;BMP_temperature;BMP_pressure;BME280_temperature;BME280_humidity;BME280_pressure;Samples;Min_cycle;Max_cycle;Signal;HPM_P1;HPM_P2
2021/03/20 00:01:04;;;;;;;2.45;1.40;;;;;;;17.39;51.62;103151.59;6232628;22;20083;-79
2021/03/20 00:03:41;;;;;;;3.15;1.30;;;;;;;17.38;51.77;103150.72;6263366;23;20012;-79
2021/03/20 00:06:07;;;;;;;2.05;1.30;;;;;;;17.36;51.51;103148.91;6239978;23;20008;-79
2021/03/20 00:08:36;;;;;;;2.10;1.38;;;;;;;17.35;51.45;103153.22;6243693;22;20050;-80
2021/03/20 00:13:44;;;;;;;2.40;1.20;;;;;;;17.37;51.65;103155.88;6268185;22;20050;-79
2021/03/20 00:16:14;;;;;;;1.92;0.98;;;;;;;17.35;51.42;103155.81;6235628;22;20020;-81
2021/03/20 00:18:41;;;;;;;1.73;1.35;;;;;;;17.34;51.51;103154.06;6212007;23;20046;-80
2021/03/20 00:21:09;;;;;;;2.88;1.25;;;;;;;17.34;51.64;103155.78;6233250;23;20399;-79
2021/03/20 00:23:36;;;;;;;1.60;1.10;;;;;;;17.32;51.53;103153.13;6263269;23;20015;-79
2021/03/20 00:26:02;;;;;;;2.10;1.40;;;;;;;17.32;51.67;103160.94;6199804;22;20064;-79
2021/03/20 00:31:04;;;;;;;1.60;1.00;;;;;;;17.32;51.31;103163.53;6257786;22;20051;-79
2021/03/20 00:33:30;;;;;;;1.52;1.10;;;;;;;17.30;51.25;103165.22;6250332;22;20024;-80
2021/03/20 00:35:58;;;;;;;1.33;0.95;;;;;;;17.31;51.53;103169.59;6265895;23;20038;-79
2021/03/20 00:38:44;;;;;;;2.80;1.27;;;;;;;17.32;51.52;103167.88;6235673;23;20008;-79
2021/03/20 00:41:12;;;;;;;1.63;0.95;;;;;;;17.31;51.51;103160.88;6261773;23;20000;-78
2021/03/20 00:43:43;;;;;;;1.75;1.13;;;;;;;17.31;51.42;103167.00;6261962;22;20011;-79
2021/03/20 00:46:16;;;;;;;1.90;1.10;;;;;;;17.30;51.39;103169.56;6260687;23;20111;-79
2021/03/20 00:48:42;;;;;;;1.38;1.05;;;;;;;17.28;51.34;103169.50;6259656;23;20336;-78
2021/03/20 00:51:15;;;;;;;1.40;1.10;;;;;;;17.28;51.50;103165.16;6235937;23;20016;-79
2021/03/20 00:53:43;;;;;;;1.30;0.90;;;;;;;17.28;51.37;103159.97;6257010;22;20034;-79
2021/03/20 00:56:10;;;;;;;1.52;1.10;;;;;;;17.28;51.22;103172.97;6259994;22;20043;-78
2021/03/20 00:58:56;;;;;;;1.67;1.10;;;;;;;17.27;51.25;103168.63;6259770;22;20008;-79
2021/03/20 01:01:30;;;;;;;1.85;1.00;;;;;;;17.27;51.32;103172.94;6259678;23;20076;-79
2021/03/20 01:03:58;;;;;;;2.22;1.20;;;;;;;17.27;51.15;103172.94;6260897;22;20028;-78
2021/03/20 01:06:27;;;;;;;2.05;1.20;;;;;;;17.27;51.26;103170.34;6250902;22;20028;-79
2021/03/20 01:08:54;;;;;;;1.48;1.17;;;;;;;17.25;51.27;103172.91;6203726;23;20009;-78
2021/03/20 01:11:21;;;;;;;1.42;0.88;;;;;;;17.27;51.10;103170.34;6252006;23;20412;-79
2021/03/20 01:13:47;;;;;;;1.40;1.08;;;;;;;17.25;51.24;103170.28;6225900;23;20035;-78
2021/03/20 01:16:14;;;;;;;1.95;1.10;;;;;;;17.22;51.21;103170.22;6228214;23;20009;-80
2021/03/20 01:18:43;;;;;;;2.03;1.05;;;;;;;17.24;51.09;103171.13;6227917;23;20004;-78
2021/03/20 01:21:11;;;;;;;1.80;1.20;;;;;;;17.25;51.09;103172.03;6252209;23;20027;-79
2021/03/20 01:23:37;;;;;;;1.90;1.20;;;;;;;17.22;51.38;103172.81;6223921;23;20072;-79
2021/03/20 01:26:05;;;;;;;1.75;1.00;;;;;;;17.21;51.27;103165.84;6230027;23;20005;-79
2021/03/20 01:28:41;;;;;;;1.77;1.20;;;;;;;17.21;51.07;103165.84;6233088;23;20059;-79
2021/03/20 01:31:08;;;;;;;1.60;1.13;;;;;;;17.22;51.14;103177.13;6232460;23;20015;-79
2021/03/20 01:33:33;;;;;;;1.33;0.90;;;;;;;17.18;51.26;103172.66;6232953;23;20005;-78
2021/03/20 01:36:00;;;;;;;1.10;0.70;;;;;;;17.21;51.23;103176.25;6232823;23;20021;-78
2021/03/20 01:38:26;;;;;;;1.33;0.95;;;;;;;17.21;51.15;103176.25;6232797;23;20015;-78
2021/03/20 01:41:13;;;;;;;1.45;0.95;;;;;;;17.19;51.09;103169.22;6207680;23;20072;-79
2021/03/20 01:43:38;;;;;;;2.50;1.20;;;;;;;17.19;51.08;103164.91;6232995;23;20004;-78
2021/03/20 01:46:40;;;;;;;1.48;0.90;;;;;;;17.20;51.05;103171.91;6231356;23;20011;-78
2021/03/20 01:49:36;;;;;;;2.67;1.00;;;;;;;17.18;51.14;103170.06;6233287;23;20004;-79
2021/03/20 01:52:30;;;;;;;1.58;0.95;;;;;;;17.19;51.07;103171.84;6233794;23;20004;-79
2021/03/20 01:55:17;;;;;;;2.00;1.10;;;;;;;17.19;51.16;103170.09;6233345;22;20056;-79
2021/03/20 01:58:15;;;;;;;1.50;0.80;;;;;;;17.18;51.11;103172.66;6238556;23;20510;-79
2021/03/20 02:00:59;;;;;;;1.05;0.82;;;;;;;17.17;51.15;103173.50;6239010;23;20543;-78
2021/03/20 02:03:27;;;;;;;1.08;0.90;;;;;;;17.16;51.21;103159.63;6239269;23;20001;-79
2021/03/20 02:05:55;;;;;;;1.65;1.00;;;;;;;17.16;50.87;103176.94;6236439;23;20059;-79
2021/03/20 02:08:21;;;;;;;1.35;0.80;;;;;;;17.13;51.10;103169.94;6236962;22;20102;-78
2021/03/20 02:10:47;;;;;;;1.75;0.90;;;;;;;17.16;51.00;103169.13;6217347;23;20077;-79
2021/03/20 02:13:40;;;;;;;1.30;0.95;;;;;;;17.13;50.99;103163.84;6267346;23;20007;-79
2021/03/20 02:16:27;;;;;;;2.03;0.90;;;;;;;17.13;50.94;103156.91;6267287;23;20056;-78
2021/03/20 02:19:23;;;;;;;1.25;0.80;;;;;;;17.14;51.01;103163.03;6268152;23;20012;-78
2021/03/20 02:22:05;;;;;;;1.50;0.90;;;;;;;17.13;51.04;103158.66;6238828;23;20011;-79
2021/03/20 02:25:07;;;;;;;1.30;0.80;;;;;;;17.14;51.11;103148.28;6277389;22;20022;-80
2021/03/20 02:27:35;;;;;;;1.33;0.80;;;;;;;17.13;51.19;103150.84;6269329;22;20015;-79
2021/03/20 02:30:44;;;;;;;1.17;0.68;;;;;;;17.14;51.13;103150.03;6298678;22;19996;-78
2021/03/20 02:33:20;;;;;;;1.70;0.90;;;;;;;17.11;50.94;103157.72;6270891;22;19999;-79
2021/03/20 02:36:12;;;;;;;1.15;0.85;;;;;;;17.13;50.90;103153.44;6272317;22;20003;-79
2021/03/20 02:39:06;;;;;;;1.88;0.80;;;;;;;17.10;51.08;103156.84;6295643;22;20030;-81
2021/03/20 02:41:55;;;;;;;1.38;0.80;;;;;;;17.11;50.97;103149.91;6252459;22;20023;-79
2021/03/20 02:44:36;;;;;;;0.90;0.60;;;;;;;17.10;50.84;103159.44;6266903;22;20083;-80
2021/03/20 02:47:05;;;;;;;1.65;0.73;;;;;;;17.11;50.74;103160.31;6273579;22;20043;-79
2021/03/20 02:49:56;;;;;;;1.20;0.80;;;;;;;17.11;50.93;103163.78;6274062;22;20012;-79
2021/03/20 02:52:33;;;;;;;1.42;0.90;;;;;;;17.08;50.87;103160.25;6273765;22;19992;-80
2021/03/20 02:55:15;;;;;;;1.13;0.70;;;;;;;17.09;50.86;103162.88;6272600;22;20055;-80
2021/03/20 03:00:39;;;;;;;1.30;0.90;;;;;;;17.10;50.94;103166.38;6274137;22;20014;-81
2021/03/20 03:03:10;;;;;;;1.20;0.80;;;;;;;17.09;50.96;103168.06;6271615;22;20000;-81
2021/03/20 03:06:25;;;;;;;1.15;0.65;;;;;;;17.09;50.77;103159.38;6232669;22;20007;-79
2021/03/20 03:11:41;;;;;;;0.80;0.70;;;;;;;17.08;50.87;103162.84;6271276;22;20016;-78
2021/03/20 03:14:15;;;;;;;1.27;0.90;;;;;;;17.05;51.02;103166.25;6243812;23;20062;-80
2021/03/20 03:16:51;;;;;;;1.35;0.90;;;;;;;17.05;50.82;103159.31;6264324;23;20026;-80
2021/03/20 03:19:28;;;;;;;1.38;0.80;;;;;;;17.05;50.79;103164.50;6250161;22;20043;-77
2021/03/20 03:21:59;;;;;;;1.67;0.80;;;;;;;17.07;50.89;103161.94;6238590;23;19997;-80
2021/03/20 03:24:28;;;;;;;1.58;0.80;;;;;;;17.04;50.70;103160.13;6238894;23;19996;-80
2021/03/20 03:26:59;;;;;;;1.02;0.60;;;;;;;17.06;50.84;103165.38;6237545;23;20061;-79
2021/03/20 03:29:30;;;;;;;1.02;0.70;;;;;;;17.04;51.05;103156.66;6238840;23;20004;-80
2021/03/20 03:32:28;;;;;;;0.80;0.60;;;;;;;17.04;50.82;103162.72;6228748;23;20009;-80
2021/03/20 03:34:57;;;;;;;0.95;0.65;;;;;;;17.04;50.82;103165.34;6240449;23;20008;-80
2021/03/20 03:37:49;;;;;;;0.98;0.73;;;;;;;17.02;50.96;103163.53;6240296;23;20008;-80
2021/03/20 03:40:23;;;;;;;0.90;0.60;;;;;;;17.03;50.90;103167.91;6253801;22;20039;-77
2021/03/20 03:42:53;;;;;;;1.25;0.70;;;;;;;17.03;50.88;103168.78;6301800;22;19980;-79
2021/03/20 03:45:24;;;;;;;0.93;0.70;;;;;;;17.02;50.71;103160.94;6251461;22;20003;-80
2021/03/20 03:48:03;;;;;;;1.00;0.65;;;;;;;16.99;50.88;103159.13;6297920;22;20022;-77
2021/03/20 03:50:35;;;;;;;1.02;0.60;;;;;;;17.00;50.76;103157.41;6243732;22;20017;-77
2021/03/20 03:53:06;;;;;;;0.63;0.55;;;;;;;16.99;50.66;103156.53;6235064;22;20041;-80
2021/03/20 03:55:35;;;;;;;1.10;0.77;;;;;;;16.98;50.68;103146.94;6251049;22;20016;-81
2021/03/20 03:58:06;;;;;;;1.05;0.77;;;;;;;17.01;51.09;103153.97;6269039;23;20004;-79
2021/03/20 04:00:49;;;;;;;1.25;0.80;;;;;;;16.99;50.78;103145.25;6243527;23;20012;-80
2021/03/20 04:03:39;;;;;;;0.77;0.57;;;;;;;16.98;50.72;103152.13;6240252;23;20034;-80
2021/03/20 04:06:13;;;;;;;1.30;0.80;;;;;;;16.98;50.77;103154.75;6224095;23;20001;-80
2021/03/20 04:09:04;;;;;;;0.90;0.70;;;;;;;16.98;50.88;103162.53;6208136;23;20024;-80
2021/03/20 04:12:09;;;;;;;1.33;0.73;;;;;;;16.98;50.77;103159.06;6209527;23;20030;-81
2021/03/20 04:15:12;;;;;;;1.38;0.90;;;;;;;16.98;50.79;103154.75;6154264;23;20032;-79
2021/03/20 04:17:40;;;;;;;1.20;0.68;;;;;;;16.97;51.03;103160.78;6239941;23;20051;-81
2021/03/20 04:20:14;;;;;;;1.35;0.70;;;;;;;16.98;50.62;103156.47;6207714;23;20000;-78
2021/03/20 04:22:58;;;;;;;;;;;;;;;16.97;50.79;103160.78;6237885;23;20020;-78
2021/03/20 04:25:47;;;;;;;0.68;0.52;;;;;;;16.96;50.38;103153.84;6237244;23;19966;-78
2021/03/20 04:28:24;;;;;;;2.05;0.60;;;;;;;16.96;50.70;103156.44;6237720;23;19996;-78
2021/03/20 04:31:19;;;;;;;1.00;0.70;;;;;;;16.94;50.56;103155.50;6212453;23;19988;-78
2021/03/20 04:34:09;;;;;;;0.88;0.70;;;;;;;16.93;50.60;103161.53;6226325;23;20031;-78
2021/03/20 04:37:06;;;;;;;0.55;0.50;;;;;;;16.98;50.75;103172.06;6211492;23;20340;-79
2021/03/20 04:39:35;;;;;;;1.02;0.70;;;;;;;16.94;50.73;103168.53;6194980;23;20004;-79
2021/03/20 04:42:24;;;;;;;1.00;0.60;;;;;;;16.96;50.70;103171.16;6237951;23;20020;-78
2021/03/20 04:44:50;;;;;;;0.60;0.60;;;;;;;16.95;50.73;103179.78;6238324;23;20055;-79
2021/03/20 04:47:25;;;;;;;0.80;0.70;;;;;;;16.97;50.99;103178.13;6239678;23;20004;-79
2021/03/20 04:50:16;;;;;;;0.65;0.50;;;;;;;16.98;50.70;103185.94;6212272;23;20003;-77
2021/03/20 04:52:47;;;;;;;1.05;0.70;;;;;;;16.96;50.91;103185.06;6239302;23;20005;-78
2021/03/20 04:55:14;;;;;;;0.70;0.52;;;;;;;16.95;50.72;103183.28;6212145;23;20044;-78
2021/03/20 04:58:23;;;;;;;0.85;0.60;;;;;;;16.99;50.75;103197.25;6237431;23;19992;-78
2021/03/20 05:00:51;;;;;;;1.33;0.77;;;;;;;16.99;50.91;103181.66;6239729;23;20012;-81
2021/03/20 05:03:54;;;;;;;0.77;0.68;;;;;;;16.98;50.70;103188.56;6239042;23;20005;-80
2021/03/20 05:06:25;;;;;;;1.27;0.70;;;;;;;16.97;50.76;103173.81;6238921;23;20004;-79
2021/03/20 05:09:01;;;;;;;0.70;0.60;;;;;;;16.97;50.65;103170.31;6239665;23;20058;-77
2021/03/20 05:11:48;;;;;;;0.77;0.60;;;;;;;16.99;50.62;103173.84;6239576;23;20012;-78
2021/03/20 05:14:39;;;;;;;0.98;0.50;;;;;;;16.98;50.72;103175.56;6239958;23;20080;-78
2021/03/20 05:17:15;;;;;;;0.77;0.60;;;;;;;16.98;50.82;103177.28;6236625;23;20084;-80
2021/03/20 05:19:46;;;;;;;0.82;0.60;;;;;;;16.99;50.63;103176.47;6211390;23;20008;-79
2021/03/20 05:22:32;;;;;;;0.65;0.50;;;;;;;16.97;50.69;103167.72;6238611;23;20007;-80
2021/03/20 05:25:00;;;;;;;1.27;0.60;;;;;;;16.96;50.65;103177.25;6235780;23;20080;-78
2021/03/20 05:27:37;;;;;;;0.88;0.63;;;;;;;16.98;50.87;103165.16;6239867;23;20003;-80
2021/03/20 05:30:08;;;;;;;0.70;0.50;;;;;;;16.98;50.63;103167.75;6269328;22;20015;-80
2021/03/20 05:32:35;;;;;;;0.65;0.40;;;;;;;16.98;50.79;103172.06;6298121;22;20012;-80
2021/03/20 05:35:07;;;;;;;0.60;0.60;;;;;;;16.98;50.61;103170.34;6249050;22;20006;-80
2021/03/20 05:37:38;;;;;;;0.77;0.47;;;;;;;16.97;50.71;103166.00;6298691;22;19999;-81
2021/03/20 05:40:30;;;;;;;1.15;0.63;;;;;;;16.96;50.73;103163.34;6272722;22;20006;-80
2021/03/20 05:43:24;;;;;;;0.70;0.50;;;;;;;17.00;50.84;103175.59;6272056;22;20034;-78
2021/03/20 05:45:55;;;;;;;0.70;0.50;;;;;;;16.98;50.79;103159.94;6270618;22;20030;-79
2021/03/20 05:48:37;;;;;;;0.80;0.60;;;;;;;16.99;50.69;103166.06;6298977;22;19996;-78
2021/03/20 05:51:32;;;;;;;0.60;0.50;;;;;;;16.99;50.58;103168.66;6297797;22;20007;-80
2021/03/20 05:54:35;;;;;;;0.85;0.60;;;;;;;16.98;50.79;103169.47;6270366;22;20070;-81
2021/03/20 05:57:30;;;;;;;0.43;0.40;;;;;;;17.01;50.50;103178.25;6269072;22;20069;-78
2021/03/20 06:00:21;;;;;;;1.02;0.60;;;;;;;17.01;50.68;103177.38;6243561;22;20402;-78
2021/03/20 06:03:28;;;;;;;0.60;0.50;;;;;;;17.00;50.51;103180.81;6295823;22;20003;-78
2021/03/20 06:06:04;;;;;;;0.80;0.52;;;;;;;17.01;50.44;103193.88;6267085;22;19999;-78
2021/03/20 06:08:57;;;;;;;0.95;0.65;;;;;;;17.02;50.47;103192.16;6265901;22;20079;-79
2021/03/20 06:11:45;;;;;;;0.40;0.40;;;;;;;17.02;50.58;103197.34;6264576;22;20011;-79
2021/03/20 06:14:29;;;;;;;1.00;0.50;;;;;;;17.01;50.43;103190.41;6261615;22;20325;-78
2021/03/20 06:17:41;;;;;;;0.50;0.50;;;;;;;17.01;50.52;103186.06;6262943;22;20435;-79
2021/03/20 06:20:12;;;;;;;0.70;0.50;;;;;;;17.03;50.52;103188.72;6269863;22;20050;-79
2021/03/20 06:22:56;;;;;;;1.05;0.70;;;;;;;17.03;50.47;103187.00;6293110;22;20000;-78
2021/03/20 06:25:34;;;;;;;0.70;0.40;;;;;;;17.03;50.58;103194.81;6290597;22;20023;-78
2021/03/20 06:28:00;;;;;;;0.80;0.50;;;;;;;17.02;50.49;103193.03;6291532;22;20004;-79
2021/03/20 06:30:46;;;;;;;1.58;0.47;;;;;;;17.03;50.58;103197.41;6240707;22;20000;-78
2021/03/20 06:33:23;;;;;;;1.05;0.50;;;;;;;17.03;50.48;103192.19;6295820;22;20004;-79
2021/03/20 06:35:58;;;;;;;0.57;0.50;;;;;;;17.03;50.59;103196.53;6271151;22;19983;-79
2021/03/20 06:38:57;;;;;;;0.88;0.50;;;;;;;17.04;50.56;103201.75;6299791;22;20004;-78
2021/03/20 06:41:53;;;;;;;0.50;0.50;;;;;;;17.04;50.65;103204.34;6269007;22;20032;-79
2021/03/20 06:44:43;;;;;;;1.05;0.50;;;;;;;17.04;50.67;103198.28;6266161;22;20434;-79
2021/03/20 06:47:16;;;;;;;1.02;0.50;;;;;;;17.04;50.54;103200.88;6292299;22;20000;-81
2021/03/20 06:49:56;;;;;;;1.20;0.65;;;;;;;17.03;50.64;103197.41;6292831;22;20004;-79
2021/03/20 06:52:25;;;;;;;0.95;0.50;;;;;;;17.04;50.51;103195.69;6277723;22;20517;-78
2021/03/20 06:54:59;;;;;;;0.80;0.50;;;;;;;17.03;50.43;103200.00;6265604;22;20012;-79
2021/03/20 06:57:38;;;;;;;0.65;0.50;;;;;;;17.04;50.63;103191.34;6293065;22;20046;-79
2021/03/20 07:00:29;;;;;;;1.50;0.63;;;;;;;17.16;50.00;103189.94;6262990;22;20016;-79
2021/03/20 07:06:45;;;;;;;14.27;3.85;;;;;;;17.41;49.12;103186.34;6295351;22;20065;-79
2021/03/20 07:09:12;;;;;;;12.63;3.67;;;;;;;17.47;48.96;103177.00;6297337;22;20004;-79
2021/03/20 07:12:03;;;;;;;8.20;3.45;;;;;;;17.53;49.18;103183.19;6296308;22;20003;-79
2021/03/20 07:15:02;;;;;;;14.27;3.60;;;;;;;17.61;49.01;103176.50;6296259;22;19996;-79
2021/03/20 07:17:36;;;;;;;10.13;3.20;;;;;;;17.68;49.34;103179.31;6269507;22;20037;-79
2021/03/20 07:20:27;;;;;;;11.95;3.40;;;;;;;17.81;48.97;103184.84;6288525;22;20011;-79
2021/03/20 07:23:16;;;;;;;6.70;3.30;;;;;;;17.87;48.78;103179.84;6230431;22;20077;-80
2021/03/20 07:26:09;;;;;;;10.30;3.45;;;;;;;18.64;46.99;103180.03;6230627;23;20043;-79
2021/03/20 07:28:37;;;;;;;8.70;2.97;;;;;;;18.57;47.17;103183.31;6196554;23;20044;-80
2021/03/20 07:31:24;;;;;;;8.32;3.28;;;;;;;18.29;47.89;103190.50;6197186;23;20005;-79
2021/03/20 07:34:00;;;;;;;8.57;2.90;;;;;;;18.17;48.37;103184.09;6174008;23;20341;-79
2021/03/20 07:36:26;;;;;;;6.88;2.80;;;;;;;18.14;48.94;103186.59;6199961;23;20020;-80
2021/03/20 07:39:18;;;;;;;6.55;2.58;;;;;;;18.16;48.46;103177.09;6199808;23;20084;-79
2021/03/20 07:41:48;;;;;;;4.70;2.78;;;;;;;19.05;46.54;103173.97;6194160;23;20044;-80
2021/03/20 07:44:13;;;;;;;8.82;3.13;;;;;;;19.43;45.64;103169.56;6161762;23;20009;-87
2021/03/20 07:46:40;;;;;;;5.22;2.42;;;;;;;19.57;45.25;103171.56;6187164;23;20095;-89
2021/03/20 07:49:18;;;;;;;6.93;2.50;;;;;;;19.38;45.93;103180.75;6135909;23;20414;-82
2021/03/20 07:51:46;;;;;;;6.97;2.55;;;;;;;18.76;47.05;103188.97;6160973;23;20015;-84
2021/03/20 07:54:26;;;;;;;5.30;2.38;;;;;;;18.43;48.05;103187.34;6192363;23;20009;-80
2021/03/20 07:56:59;;;;;;;7.78;2.53;;;;;;;18.31;48.15;103185.28;6172912;23;20013;-80
2021/03/20 07:59:30;;;;;;;6.63;2.75;;;;;;;18.39;48.47;103180.28;6177535;23;20013;-80
2021/03/20 08:01:59;;;;;;;4.72;2.20;;;;;;;18.98;47.00;103177.31;6163537;23;20052;-88
2021/03/20 08:04:46;;;;;;;6.97;2.30;;;;;;;19.16;46.63;103177.69;6160941;23;20005;-82
2021/03/20 08:07:27;;;;;;;4.85;2.10;;;;;;;18.82;47.17;103183.94;6159806;23;20012;-87
2021/03/20 08:10:25;;;;;;;5.28;2.20;;;;;;;18.66;47.74;103190.47;6188001;23;20013;-86
2021/03/20 08:13:39;;;;;;;5.35;2.22;;;;;;;18.55;48.19;103190.22;6184203;23;20041;-80
2021/03/20 08:16:06;;;;;;;8.68;2.55;;;;;;;18.50;48.34;103187.50;6185498;23;20036;-82
2021/03/20 08:18:42;;;;;;;5.97;2.28;;;;;;;18.53;48.44;103196.25;6196140;23;20017;-80
2021/03/20 08:21:20;;;;;;;5.20;2.55;;;;;;;18.52;48.19;103187.53;6196075;23;20028;-80
2021/03/20 08:23:57;;;;;;;6.65;2.33;;;;;;;18.54;48.58;103185.00;6217394;23;20557;-80
2021/03/20 08:26:49;;;;;;;3.70;2.03;;;;;;;18.61;48.38;103189.50;6226776;23;20016;-80
2021/03/20 08:29:23;;;;;;;3.58;1.90;;;;;;;18.59;48.67;103189.44;6229755;23;20011;-81
2021/03/20 08:32:03;;;;;;;5.53;1.90;;;;;;;18.57;48.65;103180.72;6230597;23;20050;-80
2021/03/20 08:34:59;;;;;;;5.45;1.88;;;;;;;18.58;48.69;103179.88;6225956;23;20000;-81
2021/03/20 08:38:00;;;;;;;4.90;2.13;;;;;;;18.73;48.31;103186.28;6234823;22;20020;-80
2021/03/20 08:40:51;;;;;;;8.82;2.15;;;;;;;18.78;48.23;103184.72;6269567;22;20023;-80
2021/03/20 08:43:45;;;;;;;6.40;1.85;;;;;;;18.96;48.03;103182.50;6295974;22;20003;-84
2021/03/20 08:46:34;;;;;;;12.17;1.90;;;;;;;18.99;47.92;103185.19;6298254;22;20004;-81
2021/03/20 08:49:11;;;;;;;11.43;2.20;;;;;;;19.06;47.66;103178.38;6272060;22;19992;-82
2021/03/20 08:52:01;;;;;;;5.68;1.70;;;;;;;19.07;47.73;103178.38;6271421;22;20000;-80
2021/03/20 08:55:07;;;;;;;7.38;1.88;;;;;;;19.07;47.77;103187.94;6297123;22;20046;-80
2021/03/20 08:57:47;;;;;;;7.45;1.65;;;;;;;18.96;48.22;103173.78;6269467;22;20015;-83
2021/03/20 09:00:25;;;;;;;5.82;1.90;;;;;;;19.17;47.53;103184.69;6269901;22;20012;-87
2021/03/20 09:02:56;;;;;;;8.85;2.40;;;;;;;19.24;46.87;103170.91;6269212;22;20010;-81
2021/03/20 09:05:29;;;;;;;6.40;1.63;;;;;;;19.15;47.00;103178.56;6297865;22;20011;-79
2021/03/20 09:10:37;;;;;;;9.35;2.15;;;;;;;19.19;46.88;103183.00;6286110;22;20273;-80
2021/03/20 09:13:13;;;;;;;7.75;1.83;;;;;;;19.26;46.56;103173.56;6292048;22;20063;-80
2021/03/20 09:15:45;;;;;;;4.70;1.63;;;;;;;19.33;46.46;103183.28;6289456;22;19996;-86
2021/03/20 09:18:14;;;;;;;3.80;1.42;;;;;;;19.30;46.54;103171.03;6286897;22;19996;-86
2021/03/20 09:21:03;;;;;;;4.85;1.90;;;;;;;19.27;46.77;103170.09;6260676;22;20019;-82
2021/03/20 09:23:44;;;;;;;4.07;1.90;;;;;;;19.31;46.80;103182.34;6288519;22;20338;-82
2021/03/20 09:26:51;;;;;;;7.93;2.20;;;;;;;19.24;46.95;103172.66;6294882;22;20007;-80
2021/03/20 09:29:26;;;;;;;2.95;1.70;;;;;;;19.12;47.33;103175.91;6269140;22;20510;-81
2021/03/20 09:32:15;;;;;;;3.90;1.70;;;;;;;19.14;47.13;103171.59;6294638;22;20031;-81
2021/03/20 09:34:52;;;;;;;5.90;1.63;;;;;;;19.15;47.30;103177.69;6295853;22;20049;-81
2021/03/20 09:37:48;;;;;;;5.20;1.73;;;;;;;19.01;47.41;103173.06;6294445;22;20015;-81
2021/03/20 09:40:39;;;;;;;3.88;1.60;;;;;;;19.06;47.37;103176.63;6270762;22;20015;-80
2021/03/20 09:43:24;;;;;;;3.75;1.60;;;;;;;18.96;47.52;103165.97;6285426;22;20004;-81
2021/03/20 09:46:27;;;;;;;4.55;1.80;;;;;;;18.85;48.01;103174.44;6299862;22;20003;-80
2021/03/20 09:48:58;;;;;;;4.57;1.50;;;;;;;18.91;47.93;103174.56;6299064;22;20049;-80
2021/03/20 09:52:01;;;;;;;3.85;1.63;;;;;;;18.84;48.11;103177.03;6273456;22;20238;-80
2021/03/20 09:54:33;;;;;;;4.75;1.88;;;;;;;18.76;48.34;103175.94;6301647;22;20073;-80
2021/03/20 09:57:36;;;;;;;4.47;1.60;;;;;;;18.91;47.69;103176.31;6300248;22;20007;-80
2021/03/20 10:00:04;;;;;;;3.20;1.52;;;;;;;18.96;47.68;103169.44;6299256;22;20008;-80
2021/03/20 10:02:49;;;;;;;8.30;1.95;;;;;;;19.00;47.46;103178.22;6271995;22;20018;-82
2021/03/20 10:05:30;;;;;;;3.67;1.38;;;;;;;18.91;47.67;103168.47;6298573;22;20030;-80
2021/03/20 10:08:19;;;;;;;2.85;1.48;;;;;;;18.79;48.03;103166.50;6274000;22;20004;-81
2021/03/20 10:10:51;;;;;;;3.40;1.58;;;;;;;18.68;48.42;103162.69;6300322;22;20003;-80
2021/03/20 10:13:37;;;;;;;4.53;1.35;;;;;;;18.61;48.51;103160.81;6274445;22;20004;-77
2021/03/20 10:16:05;;;;;;;4.50;1.70;;;;;;;18.59;48.52;103167.72;6273561;22;20023;-80
2021/03/20 10:19:14;;;;;;;3.15;1.65;;;;;;;18.57;48.70;103159.84;6301934;22;20019;-81
2021/03/20 10:21:47;;;;;;;2.45;1.40;;;;;;;18.52;48.63;103160.59;6301520;22;20003;-81
2021/03/20 10:24:51;;;;;;;2.05;1.25;;;;;;;18.48;48.92;103157.03;6276912;22;20011;-80
2021/03/20 10:27:41;;;;;;;4.38;1.50;;;;;;;18.47;48.76;103147.47;6302024;22;20007;-78
2021/03/20 10:30:31;;;;;;;4.53;1.60;;;;;;;18.49;48.77;103156.19;6271522;22;20034;-80
2021/03/20 10:33:19;;;;;;;2.83;1.45;;;;;;;18.43;48.87;103143.00;6302311;22;20004;-81
2021/03/20 10:36:27;;;;;;;3.30;1.35;;;;;;;18.47;48.85;103143.13;6302254;22;20046;-79
2021/03/20 10:38:55;;;;;;;3.17;1.40;;;;;;;18.48;48.60;103136.16;6274670;22;20003;-79
2021/03/20 10:41:25;;;;;;;3.33;1.40;;;;;;;18.50;48.54;103139.69;6247971;22;19999;-79
2021/03/20 10:44:19;;;;;;;3.50;1.60;;;;;;;18.19;53.08;103135.50;6302076;22;20026;-80
2021/03/20 10:46:46;;;;;;;5.57;1.63;;;;;;;18.01;53.58;103141.13;6301279;22;20157;-80
2021/03/20 10:49:22;;;;;;;6.68;1.60;;;;;;;17.87;54.63;103138.16;6274980;22;19999;-79
2021/03/20 10:52:20;;;;;;;9.65;2.00;;;;;;;17.77;54.91;103143.91;6301864;22;20019;-80
2021/03/20 10:54:50;;;;;;;6.47;2.05;;;;;;;17.67;55.27;103140.22;6274525;22;20011;-80
2021/03/20 11:00:58;;;;;;;3.47;1.95;;;;;;;17.62;54.85;103142.69;6301165;22;20065;-79
2021/03/20 11:03:51;;;;;;;3.10;1.67;;;;;;;17.60;55.66;103140.91;6300142;22;20019;-79
2021/03/20 11:06:20;;;;;;;;;;;;;;;17.60;55.09;103139.16;6268925;23;20016;-80
2021/03/20 11:09:16;;;;;;;6.75;1.50;;;;;;;17.58;55.32;103139.97;6268378;23;19911;-79
2021/03/20 11:11:44;;;;;;;6.68;1.77;;;;;;;17.57;55.72;103140.78;6268123;23;20042;-79
2021/03/20 11:14:14;;;;;;;4.22;1.48;;;;;;;17.53;56.01;103145.06;6267910;23;20007;-80
2021/03/20 11:16:45;;;;;;;3.90;1.60;;;;;;;17.51;55.41;103125.00;6241067;22;20025;-80
2021/03/20 11:19:49;;;;;;;4.30;1.52;;;;;;;17.55;55.25;103132.06;6236581;23;20021;-79
2021/03/20 11:22:31;;;;;;;3.33;1.50;;;;;;;17.57;55.09;103133.88;6234112;23;20091;-80
2021/03/20 11:24:59;;;;;;;8.38;1.30;;;;;;;17.56;55.48;103128.63;6228054;23;20080;-79
2021/03/20 11:27:36;;;;;;;8.23;1.60;;;;;;;17.56;55.13;103126.03;6238229;23;19989;-80
2021/03/20 11:33:45;;;;;;;3.78;1.33;;;;;;;17.57;55.35;103126.06;6251015;22;20058;-81
2021/03/20 11:36:58;;;;;;;4.03;1.58;;;;;;;17.58;55.52;103119.13;6258499;22;20020;-80
2021/03/20 11:39:26;;;;;;;3.60;1.40;;;;;;;17.56;55.42;103113.88;6179660;23;20063;-78
2021/03/20 11:42:27;;;;;;;3.65;1.70;;;;;;;17.56;55.13;103118.22;6161443;23;20015;-80
2021/03/20 11:45:21;;;;;;;5.75;1.50;;;;;;;17.56;54.95;103108.69;6129548;23;20045;-79
2021/03/20 11:47:52;;;;;;;;;;;;;;;17.58;55.46;103111.31;6122868;23;20010;-79
2021/03/20 11:50:49;;;;;;;2.67;1.30;;;;;;;17.56;55.42;103105.19;6149141;23;19896;-81
2021/03/20 11:53:38;;;;;;;2.40;1.05;;;;;;;17.61;55.08;103100.97;6016375;23;20007;-81
2021/03/20 11:56:23;;;;;;;3.47;1.52;;;;;;;17.63;55.65;103096.69;6170329;22;20045;-79
2021/03/20 11:59:13;;;;;;;3.50;1.35;;;;;;;17.61;55.13;103078.41;6264477;23;20072;-78
2021/03/20 12:01:59;;;;;;;3.25;1.48;;;;;;;17.64;55.58;103086.34;6263497;23;20019;-79
2021/03/20 12:04:30;;;;;;;1.83;1.20;;;;;;;17.65;54.62;103082.88;6215241;23;20070;-79
2021/03/20 12:07:25;;;;;;;5.43;1.20;;;;;;;17.66;54.94;103087.25;6284485;22;20043;-79
2021/03/20 12:12:57;;;;;;;2.63;1.20;;;;;;;17.68;55.40;103076.84;6326376;22;19929;-79
2021/03/20 12:15:55;;;;;;;7.13;1.38;;;;;;;17.71;55.95;103071.75;6270866;22;20063;-79
2021/03/20 12:18:23;;;;;;;2.80;1.30;;;;;;;17.73;55.43;103070.06;6323832;22;20010;-79
2021/03/20 12:20:50;;;;;;;2.53;1.17;;;;;;;17.72;54.82;103060.47;6322855;22;20014;-79
2021/03/20 12:23:25;;;;;;;3.40;1.08;;;;;;;17.72;56.45;103065.69;6296852;22;20003;-79
2021/03/20 12:25:57;;;;;;;1.98;0.93;;;;;;;17.76;56.12;103075.34;6323621;22;19999;-79
2021/03/20 12:28:44;;;;;;;1.83;1.20;;;;;;;17.79;56.18;103066.72;6318639;22;20137;-78
2021/03/20 12:31:35;;;;;;;2.53;1.20;;;;;;;17.79;56.70;103057.19;6316846;22;20010;-78
2021/03/20 12:34:06;;;;;;;3.55;1.20;;;;;;;17.77;55.83;103057.97;6320730;22;20042;-79
2021/03/20 12:36:48;;;;;;;3.50;1.23;;;;;;;17.76;54.87;103057.09;6317443;22;20010;-79
2021/03/20 12:39:32;;;;;;;1.33;0.95;;;;;;;17.80;55.96;103056.34;6317117;22;20460;-79
2021/03/20 12:41:58;;;;;;;2.03;1.00;;;;;;;17.83;56.25;103045.16;6258481;22;20020;-80
2021/03/20 12:44:50;;;;;;;1.83;0.95;;;;;;;17.83;56.87;103059.06;6180252;23;20460;-82
2021/03/20 12:47:18;;;;;;;1.77;0.85;;;;;;;17.82;55.29;103052.09;6202372;23;20015;-78
2021/03/20 12:49:48;;;;;;;1.55;0.88;;;;;;;17.81;54.72;103047.69;6230240;23;20004;-80
2021/03/20 12:52:19;;;;;;;2.00;1.00;;;;;;;17.82;56.38;103048.59;6229779;23;20007;-79
2021/03/20 12:54:51;;;;;;;1.80;0.98;;;;;;;17.80;55.37;103037.25;6230287;23;20004;-79